Time;durP1;ratioP1;P1;durP2;ratioP2;P2;SDS_P1;SDS_P2;PMS_P1;PMS_P2;Temp;Humidity;BMP_temperature;BMP_pressure;BME280_temperature;BME280_humidity;BME280_pressure;Samples;Min_cycle;Max_cycle;Signal;HPM_P1;HPM_P2
2021/12/12 00:01:23;;;;;;;54.47;21.63;;;;;;;;;;4916194;29;20047;-62
2021/12/12 00:03:53;;;;;;;50.78;20.23;;;;;;;;;;4915813;29;20432;-64
2021/12/12 00:06:22;;;;;;;45.72;18.33;;;;;;;;;;4915551;29;20028;-61
2021/12/12 00:08:51;;;;;;;44.65;18.70;;;;;;;;;;4915128;29;20078;-62
2021/12/12 00:11:19;;;;;;;45.45;20.42;;;;;;;;;;4915517;29;20556;-61
2021/12/12 00:13:48;;;;;;;43.28;19.95;;;;;;;;;;4915445;29;20032;-61
2021/12/12 00:16:14;;;;;;;31.48;14.27;;;;;;;;;;4898710;29;20040;-62
2021/12/12 00:18:40;;;;;;;44.17;20.38;;;;;;;;;;4915405;29;20024;-62
2021/12/12 00:21:08;;;;;;;39.70;16.90;;;;;;;;;;4915355;29;20107;-62
2021/12/12 00:23:34;;;;;;;38.35;15.30;;;;;;;;;;4915104;29;20163;-63
2021/12/12 00:26:00;;;;;;;41.05;18.83;;;;;;;;;;4915375;29;20473;-63
2021/12/12 00:28:28;;;;;;;41.72;16.77;;;;;;;;;;4898375;29;20138;-63
2021/12/12 00:30:57;;;;;;;35.00;13.23;;;;;;;;;;4915023;29;20035;-62
2021/12/12 00:33:23;;;;;;;42.15;16.88;;;;;;;;;;4914960;29;20492;-62
2021/12/12 00:35:50;;;;;;;47.08;20.55;;;;;;;;;;4914953;29;20024;-63
2021/12/12 00:38:21;;;;;;;39.45;19.45;;;;;;;;;;4914698;29;20024;-62
2021/12/12 00:40:48;;;;;;;45.30;20.77;;;;;;;;;;4914771;29;20032;-63
2021/12/12 00:43:19;;;;;;;37.38;17.65;;;;;;;;;;4914558;29;20388;-63
2021/12/12 00:45:46;;;;;;;31.75;15.40;;;;;;;;;;4914792;29;20484;-63
2021/12/12 00:48:12;;;;;;;30.45;13.55;;;;;;;;;;4914383;29;20044;-62
2021/12/12 00:50:40;;;;;;;29.17;12.20;;;;;;;;;;4914750;29;20035;-63
2021/12/12 00:53:08;;;;;;;31.10;12.98;;;;;;;;;;4914466;29;20031;-63
2021/12/12 00:55:37;;;;;;;22.48;8.35;;;;;;;;;;4914908;29;20035;-64
2021/12/12 00:58:07;;;;;;;39.58;18.38;;;;;;;;;;4914718;29;20484;-62
2021/12/12 01:00:42;;;;;;;38.90;16.92;;;;;;;;;;4914578;29;20138;-63
2021/12/12 01:03:09;;;;;;;37.20;17.55;;;;;;;;;;4914705;29;20047;-63
2021/12/12 01:05:36;;;;;;;37.92;17.88;;;;;;;;;;4914386;29;20020;-63
2021/12/12 01:08:03;;;;;;;41.15;19.25;;;;;;;;;;4914463;29;20785;-64
2021/12/12 01:10:32;;;;;;;38.53;19.55;;;;;;;;;;4914199;29;20100;-62
2021/12/12 01:12:59;;;;;;;25.70;11.15;;;;;;;;;;4914762;29;20052;-62
2021/12/12 01:15:34;;;;;;;30.83;15.65;;;;;;;;;;4914270;29;20024;-62
2021/12/12 01:18:03;;;;;;;39.83;19.55;;;;;;;;;;4914731;29;20052;-63
2021/12/12 01:20:32;;;;;;;36.20;17.75;;;;;;;;;;4914474;29;20036;-63
2021/12/12 01:23:01;;;;;;;33.05;15.48;;;;;;;;;;4914602;29;20028;-65
2021/12/12 01:25:30;;;;;;;35.17;16.77;;;;;;;;;;4914244;29;20028;-63
2021/12/12 01:27:56;;;;;;;27.23;12.02;;;;;;;;;;4914424;29;20044;-64
2021/12/12 01:30:23;;;;;;;36.47;16.25;;;;;;;;;;4914413;29;20036;-63
2021/12/12 01:32:50;;;;;;;35.63;16.90;;;;;;;;;;4914023;29;20388;-64
2021/12/12 01:35:19;;;;;;;36.85;18.67;;;;;;;;;;4914489;29;20138;-63
2021/12/12 01:38:50;;;;;;;36.33;15.68;;;;;;;;;;4914321;29;20016;-62
2021/12/12 01:40:33;;;;;;;33.42;16.00;;;;;;;;;;4913941;29;20079;-63
2021/12/12 01:43:26;;;;;;;39.08;20.13;;;;;;;;;;4914436;29;20043;-63
2021/12/12 01:46:00;;;;;;;38.60;17.08;;;;;;;;;;4910080;29;20037;-64
2021/12/12 01:48:32;;;;;;;36.50;19.25;;;;;;;;;;4914209;29;20032;-62
2021/12/12 01:51:00;;;;;;;39.80;18.27;;;;;;;;;;4897443;29;20028;-64
2021/12/12 01:53:28;;;;;;;46.50;22.40;;;;;;;;;;4914159;29;20047;-64
2021/12/12 01:55:59;;;;;;;37.65;18.75;;;;;;;;;;4914224;29;20564;-64
2021/12/12 01:58:26;;;;;;;41.67;20.25;;;;;;;;;;4914159;29;20111;-63
2021/12/12 02:00:54;;;;;;;39.42;19.17;;;;;;;;;;4914271;29;20036;-63
2021/12/12 02:03:22;;;;;;;43.60;21.20;;;;;;;;;;4914152;29;20136;-64
2021/12/12 02:05:49;;;;;;;42.13;20.95;;;;;;;;;;4914011;29;20111;-64
2021/12/12 02:08:17;;;;;;;41.30;20.23;;;;;;;;;;4915071;29;20060;-64
2021/12/12 02:10:45;;;;;;;39.30;19.50;;;;;;;;;;4917458;29;20044;-64
2021/12/12 02:13:12;;;;;;;39.17;19.92;;;;;;;;;;4917540;29;20036;-63
2021/12/12 02:15:39;;;;;;;40.95;19.33;;;;;;;;;;4900573;29;20028;-63
2021/12/12 02:18:09;;;;;;;42.78;21.27;;;;;;;;;;4917577;29;20020;-63
2021/12/12 02:20:45;;;;;;;38.05;19.58;;;;;;;;;;4917210;29;20032;-63
2021/12/12 02:23:22;;;;;;;40.47;21.20;;;;;;;;;;4917155;29;20032;-62
2021/12/12 02:36:53;;;;;;;37.22;19.67;;;;;;;;;;4917383;29;20092;-63
2021/12/12 02:39:20;;;;;;;37.42;19.33;;;;;;;;;;4916802;29;20032;-64
2021/12/12 02:41:47;;;;;;;38.67;19.58;;;;;;;;;;4916979;29;20068;-65
2021/12/12 02:44:14;;;;;;;36.85;19.30;;;;;;;;;;4916961;29;20050;-64
2021/12/12 02:46:42;;;;;;;36.00;19.08;;;;;;;;;;4916899;29;20032;-65
2021/12/12 02:49:24;;;;;;;34.85;18.73;;;;;;;;;;4917180;29;20036;-64
2021/12/12 02:51:50;;;;;;;33.83;19.13;;;;;;;;;;4917278;29;20025;-63
2021/12/12 02:54:16;;;;;;;38.03;19.92;;;;;;;;;;4917115;29;20047;-63
2021/12/12 02:56:47;;;;;;;36.55;19.13;;;;;;;;;;4916926;29;20032;-63
2021/12/12 02:59:15;;;;;;;37.63;19.90;;;;;;;;;;4916724;29;20030;-63
2021/12/12 03:01:47;;;;;;;33.75;18.27;;;;;;;;;;4918036;29;20068;-65
2021/12/12 03:04:13;;;;;;;;;;;;;;;;;;4919239;29;20465;-61
2021/12/12 03:06:41;;;;;;;33.13;18.00;;;;;;;;;;4918238;29;19963;-62
2021/12/12 03:09:10;;;;;;;34.92;18.35;;;;;;;;;;4915938;29;20078;-62
2021/12/12 03:11:36;;;;;;;35.42;18.77;;;;;;;;;;4916642;29;20515;-62
2021/12/12 03:14:03;;;;;;;32.67;18.17;;;;;;;;;;4916511;29;20084;-61
2021/12/12 03:16:30;;;;;;;32.20;17.27;;;;;;;;;;4916175;29;20047;-62
2021/12/12 03:18:56;;;;;;;30.55;18.02;;;;;;;;;;4897759;29;20040;-62
2021/12/12 03:21:30;;;;;;;32.95;18.85;;;;;;;;;;4915437;29;20024;-64
2021/12/12 03:23:57;;;;;;;31.63;17.60;;;;;;;;;;4898913;29;20498;-63
2021/12/12 03:26:23;;;;;;;33.20;18.88;;;;;;;;;;4915790;29;20114;-63
2021/12/12 03:28:51;;;;;;;36.55;18.85;;;;;;;;;;4915850;29;20043;-63
2021/12/12 03:31:22;;;;;;;37.90;20.00;;;;;;;;;;4915905;29;20024;-63
2021/12/12 03:33:48;;;;;;;36.03;18.75;;;;;;;;;;4915905;29;20107;-62
2021/12/12 03:36:15;;;;;;;38.72;19.45;;;;;;;;;;4916005;29;20417;-63
2021/12/12 03:38:44;;;;;;;34.85;19.08;;;;;;;;;;4915362;29;20067;-62
2021/12/12 03:41:13;;;;;;;35.85;19.88;;;;;;;;;;4915984;29;20036;-62
2021/12/12 03:43:39;;;;;;;36.05;18.67;;;;;;;;;;4916236;29;20389;-61
2021/12/12 03:46:10;;;;;;;36.70;19.30;;;;;;;;;;4915893;29;20028;-63
2021/12/12 03:48:36;;;;;;;30.17;17.67;;;;;;;;;;4916307;29;20100;-62
2021/12/12 03:51:04;;;;;;;30.80;17.20;;;;;;;;;;4916086;29;20484;-61
2021/12/12 03:53:30;;;;;;;30.15;17.10;;;;;;;;;;4915971;29;20040;-62
2021/12/12 03:55:57;;;;;;;30.38;17.90;;;;;;;;;;4916143;29;20056;-61
2021/12/12 03:58:23;;;;;;;29.55;17.52;;;;;;;;;;4916030;29;20104;-61
2021/12/12 04:01:15;;;;;;;30.30;17.50;;;;;;;;;;4915912;29;20026;-63
2021/12/12 04:03:42;;;;;;;29.55;17.75;;;;;;;;;;4912589;29;20072;-62
2021/12/12 04:06:11;;;;;;;29.23;16.92;;;;;;;;;;4916029;29;20079;-61
2021/12/12 04:08:38;;;;;;;32.83;18.80;;;;;;;;;;4915263;29;20055;-61
2021/12/12 04:11:06;;;;;;;30.00;17.77;;;;;;;;;;4915852;29;20051;-62
2021/12/12 04:13:38;;;;;;;30.88;17.55;;;;;;;;;;4916009;29;20079;-62
2021/12/12 04:16:04;;;;;;;31.77;18.70;;;;;;;;;;4915621;29;20396;-61
2021/12/12 04:18:30;;;;;;;30.55;16.85;;;;;;;;;;4915663;29;20469;-63
2021/12/12 04:20:56;;;;;;;28.63;16.88;;;;;;;;;;4914553;29;20492;-61
2021/12/12 04:23:25;;;;;;;29.13;16.48;;;;;;;;;;4914300;29;20036;-63
2021/12/12 04:25:51;;;;;;;27.65;16.08;;;;;;;;;;4915696;29;20042;-62
2021/12/12 04:28:18;;;;;;;26.05;15.45;;;;;;;;;;4915705;29;20555;-61
2021/12/12 04:30:44;;;;;;;24.02;14.77;;;;;;;;;;4915573;29;20492;-63
2021/12/12 04:33:10;;;;;;;26.45;15.73;;;;;;;;;;4915907;29;20036;-61
2021/12/12 04:35:36;;;;;;;24.17;14.60;;;;;;;;;;4915730;29;20032;-62
2021/12/12 04:38:04;;;;;;;27.70;15.40;;;;;;;;;;4915788;29;20484;-61
2021/12/12 04:40:31;;;;;;;26.85;15.48;;;;;;;;;;4898433;29;20103;-62
2021/12/12 04:42:57;;;;;;;25.02;15.00;;;;;;;;;;4915277;29;20063;-63
2021/12/12 04:45:36;;;;;;;25.17;14.30;;;;;;;;;;4915526;29;20032;-63
2021/12/12 04:50:54;;;;;;;21.40;13.00;;;;;;;;;;4915450;29;20036;-61
2021/12/12 04:53:25;;;;;;;24.25;13.50;;;;;;;;;;4915223;29;20087;-62
2021/12/12 04:55:55;;;;;;;20.50;13.40;;;;;;;;;;4898431;29;20075;-62
2021/12/12 04:58:23;;;;;;;24.05;13.77;;;;;;;;;;4915016;29;20480;-62
2021/12/12 05:00:55;;;;;;;21.30;13.00;;;;;;;;;;4915431;29;20495;-61
2021/12/12 05:03:25;;;;;;;20.00;12.27;;;;;;;;;;4915107;29;20443;-61
2021/12/12 05:06:03;;;;;;;20.50;12.27;;;;;;;;;;4915162;29;20032;-62
2021/12/12 05:08:33;;;;;;;21.33;13.13;;;;;;;;;;4914524;29;20401;-62
2021/12/12 05:11:01;;;;;;;23.60;13.48;;;;;;;;;;4914987;29;20036;-62
2021/12/12 05:13:43;;;;;;;20.67;12.93;;;;;;;;;;4914923;29;20028;-63
2021/12/12 05:16:16;;;;;;;21.67;12.57;;;;;;;;;;4915044;29;20024;-61
2021/12/12 05:18:50;;;;;;;20.42;13.10;;;;;;;;;;4915174;29;20036;-61
2021/12/12 05:21:18;;;;;;;20.75;12.43;;;;;;;;;;4915090;29;20047;-63
2021/12/12 05:23:49;;;;;;;21.55;13.13;;;;;;;;;;4914876;29;20495;-61
2021/12/12 05:26:23;;;;;;;21.85;12.68;;;;;;;;;;4915068;29;20540;-63
2021/12/12 05:28:50;;;;;;;20.42;12.57;;;;;;;;;;4915020;29;20036;-63
2021/12/12 05:31:19;;;;;;;25.88;14.60;;;;;;;;;;4915016;29;20485;-61
2021/12/12 05:33:46;;;;;;;20.58;11.68;;;;;;;;;;4915068;29;20040;-63
2021/12/12 05:36:13;;;;;;;17.05;10.48;;;;;;;;;;4915020;29;20031;-62
2021/12/12 05:38:42;;;;;;;15.95;9.95;;;;;;;;;;4914735;29;20036;-63
2021/12/12 05:41:08;;;;;;;18.13;10.95;;;;;;;;;;4914999;29;20028;-61
2021/12/12 05:43:35;;;;;;;19.48;11.65;;;;;;;;;;4917387;29;20029;-61
2021/12/12 05:46:01;;;;;;;20.20;11.68;;;;;;;;;;4918822;29;20032;-62
2021/12/12 05:48:28;;;;;;;18.50;10.80;;;;;;;;;;4918548;29;20047;-61
2021/12/12 05:50:54;;;;;;;18.75;11.32;;;;;;;;;;4918767;29;20037;-61
2021/12/12 05:53:21;;;;;;;18.63;11.30;;;;;;;;;;4918600;29;20063;-63
2021/12/12 05:55:48;;;;;;;19.23;11.23;;;;;;;;;;4901572;29;20384;-64
2021/12/12 05:58:16;;;;;;;19.73;11.95;;;;;;;;;;4901583;29;20032;-63
2021/12/12 06:00:45;;;;;;;21.75;12.35;;;;;;;;;;4918656;29;20048;-62
2021/12/12 06:03:13;;;;;;;21.30;12.48;;;;;;;;;;4918608;29;20028;-62
2021/12/12 06:05:40;;;;;;;22.67;13.10;;;;;;;;;;4918505;29;20508;-62
2021/12/12 06:08:07;;;;;;;19.67;11.98;;;;;;;;;;4918347;29;20137;-61
2021/12/12 06:10:33;;;;;;;18.20;11.65;;;;;;;;;;4917852;29;20060;-63
2021/12/12 06:13:01;;;;;;;20.52;12.30;;;;;;;;;;4918261;29;20038;-63
2021/12/12 06:15:28;;;;;;;21.23;12.98;;;;;;;;;;4918104;29;20038;-61
2021/12/12 06:17:55;;;;;;;22.05;13.02;;;;;;;;;;4917980;29;20077;-63
2021/12/12 06:20:21;;;;;;;22.23;12.48;;;;;;;;;;4918113;29;20024;-61
2021/12/12 06:22:47;;;;;;;21.60;12.80;;;;;;;;;;4917993;29;20034;-62
2021/12/12 06:25:14;;;;;;;23.30;13.90;;;;;;;;;;4918047;29;20048;-63
2021/12/12 06:27:40;;;;;;;24.65;13.60;;;;;;;;;;4917728;29;20087;-63
2021/12/12 06:30:08;;;;;;;24.42;14.85;;;;;;;;;;4917720;29;20028;-62
2021/12/12 06:32:34;;;;;;;22.52;13.43;;;;;;;;;;4917781;29;20396;-63
2021/12/12 06:35:00;;;;;;;25.48;14.43;;;;;;;;;;4917422;29;20031;-63
2021/12/12 06:37:27;;;;;;;29.45;15.60;;;;;;;;;;4917477;29;20064;-62
2021/12/12 06:39:53;;;;;;;28.02;15.60;;;;;;;;;;4917490;29;20091;-61
2021/12/12 06:42:19;;;;;;;25.73;14.98;;;;;;;;;;4917507;29;20032;-62
2021/12/12 06:44:46;;;;;;;30.88;17.58;;;;;;;;;;4917358;29;20084;-61
2021/12/12 06:47:14;;;;;;;29.95;15.98;;;;;;;;;;4917635;29;20036;-63
2021/12/12 06:49:41;;;;;;;25.88;15.32;;;;;;;;;;4917627;29;20396;-62
2021/12/12 06:52:09;;;;;;;27.67;15.45;;;;;;;;;;4917466;29;20051;-62
2021/12/12 06:54:35;;;;;;;24.90;15.07;;;;;;;;;;4917570;29;20055;-61
2021/12/12 06:57:04;;;;;;;28.15;16.25;;;;;;;;;;4917574;29;20036;-62
2021/12/12 06:59:31;;;;;;;29.30;16.83;;;;;;;;;;4917617;29;20103;-61
2021/12/12 07:01:58;;;;;;;30.38;17.85;;;;;;;;;;4917358;29;20516;-63
2021/12/12 07:04:25;;;;;;;27.38;16.13;;;;;;;;;;4917230;29;20476;-62
2021/12/12 07:06:55;;;;;;;29.15;16.42;;;;;;;;;;4917343;29;20051;-63
2021/12/12 07:09:21;;;;;;;26.45;14.85;;;;;;;;;;4916889;29;20056;-62
2021/12/12 07:11:48;;;;;;;29.15;15.50;;;;;;;;;;4917215;29;20159;-64
2021/12/12 07:14:14;;;;;;;30.48;15.93;;;;;;;;;;4917190;29;20035;-64
2021/12/12 07:16:41;;;;;;;29.15;16.58;;;;;;;;;;4917201;29;20020;-65
2021/12/12 07:19:08;;;;;;;28.55;16.17;;;;;;;;;;4900320;29;20040;-64
2021/12/12 07:21:35;;;;;;;27.20;15.30;;;;;;;;;;4900234;29;20503;-66
2021/12/12 07:24:03;;;;;;;26.02;15.15;;;;;;;;;;4900288;29;20392;-65
2021/12/12 07:26:29;;;;;;;25.15;14.27;;;;;;;;;;4916969;29;20024;-62
2021/12/12 07:28:57;;;;;;;26.75;15.52;;;;;;;;;;4917224;29;20044;-65
2021/12/12 07:31:25;;;;;;;29.35;16.23;;;;;;;;;;4916874;29;20119;-62
2021/12/12 07:33:53;;;;;;;29.00;16.48;;;;;;;;;;4916916;29;20038;-62
2021/12/12 07:36:20;;;;;;;30.23;16.83;;;;;;;;;;4916931;29;20021;-63
2021/12/12 07:38:51;;;;;;;31.15;17.00;;;;;;;;;;4916633;29;20032;-63
2021/12/12 07:41:18;;;;;;;29.63;16.55;;;;;;;;;;4916553;29;20055;-62
2021/12/12 07:43:44;;;;;;;31.58;17.35;;;;;;;;;;4916379;29;20037;-65
2021/12/12 07:46:10;;;;;;;28.35;15.93;;;;;;;;;;4915728;29;20043;-64
2021/12/12 07:48:39;;;;;;;30.33;16.25;;;;;;;;;;4894508;29;20044;-63
2021/12/12 07:51:07;;;;;;;30.08;16.13;;;;;;;;;;4879130;29;20027;-60
2021/12/12 07:53:33;;;;;;;27.65;13.40;;;;;;;;;;4878767;29;20124;-60
2021/12/12 07:56:00;;;;;;;24.08;14.23;;;;;;;;;;4878767;29;20037;-61
2021/12/12 07:58:26;;;;;;;28.95;16.05;;;;;;;;;;4878630;29;20037;-63
2021/12/12 08:00:54;;;;;;;33.60;17.40;;;;;;;;;;4878723;29;20037;-63
2021/12/12 08:03:24;;;;;;;35.08;18.52;;;;;;;;;;4878407;29;20029;-61
2021/12/12 08:05:50;;;;;;;30.05;17.08;;;;;;;;;;4878060;29;20029;-63
2021/12/12 08:08:16;;;;;;;28.98;16.00;;;;;;;;;;4878037;29;20048;-61
2021/12/12 08:10:43;;;;;;;31.38;16.80;;;;;;;;;;4896960;29;20099;-60
2021/12/12 08:13:10;;;;;;;30.30;16.33;;;;;;;;;;4896788;29;20354;-62
2021/12/12 08:15:37;;;;;;;38.75;19.40;;;;;;;;;;4895099;29;20028;-61
2021/12/12 08:18:04;;;;;;;24.58;13.93;;;;;;;;;;4897096;29;20033;-62
2021/12/12 08:20:30;;;;;;;23.00;14.40;;;;;;;;;;4897348;29;20048;-60
2021/12/12 08:22:56;;;;;;;23.73;13.77;;;;;;;;;;4880020;29;20041;-62
2021/12/12 08:25:22;;;;;;;22.20;14.02;;;;;;;;;;4896572;29;20035;-61
2021/12/12 08:27:48;;;;;;;23.83;14.40;;;;;;;;;;4896571;29;20064;-62
2021/12/12 08:30:16;;;;;;;31.75;17.88;;;;;;;;;;4894993;29;20688;-60
2021/12/12 08:32:43;;;;;;;23.77;14.07;;;;;;;;;;4895439;29;20188;-60
2021/12/12 08:35:12;;;;;;;24.13;13.75;;;;;;;;;;4895417;29;20028;-59
2021/12/12 08:37:40;;;;;;;24.73;14.75;;;;;;;;;;4895706;29;20482;-60
2021/12/12 08:40:07;;;;;;;23.83;13.98;;;;;;;;;;4879012;29;20063;-62
2021/12/12 08:42:34;;;;;;;22.35;13.40;;;;;;;;;;4895688;29;20396;-60
2021/12/12 08:45:00;;;;;;;25.60;14.77;;;;;;;;;;4895716;29;20038;-59
2021/12/12 08:47:27;;;;;;;28.15;15.55;;;;;;;;;;4896024;29;20104;-59
2021/12/12 08:49:53;;;;;;;25.55;14.85;;;;;;;;;;4895786;29;20032;-59
2021/12/12 08:52:22;;;;;;;27.42;15.05;;;;;;;;;;4896308;29;20112;-60
2021/12/12 08:54:49;;;;;;;23.73;14.25;;;;;;;;;;4896281;29;20381;-59
2021/12/12 08:57:31;;;;;;;20.98;13.05;;;;;;;;;;4878984;29;20037;-66
2021/12/12 08:59:58;;;;;;;17.70;10.38;;;;;;;;;;4878920;29;20041;-61
2021/12/12 09:02:25;;;;;;;23.95;13.88;;;;;;;;;;4895750;29;20095;-59
2021/12/12 09:04:55;;;;;;;22.48;12.70;;;;;;;;;;4895933;29;20048;-59
2021/12/12 09:07:27;;;;;;;23.17;13.20;;;;;;;;;;4902698;29;20052;-59
2021/12/12 09:09:59;;;;;;;22.42;13.15;;;;;;;;;;4910804;29;20062;-59
2021/12/12 09:12:27;;;;;;;21.17;12.05;;;;;;;;;;4913058;29;20425;-59
2021/12/12 09:14:55;;;;;;;20.92;12.90;;;;;;;;;;4913478;29;20032;-59
2021/12/12 09:17:29;;;;;;;22.00;13.07;;;;;;;;;;4912830;29;20386;-59
2021/12/12 09:19:58;;;;;;;21.77;13.10;;;;;;;;;;4913551;29;20098;-60
2021/12/12 09:22:34;;;;;;;20.15;12.15;;;;;;;;;;4914148;29;20024;-59
2021/12/12 09:25:15;;;;;;;19.52;12.40;;;;;;;;;;4914628;29;20032;-58
2021/12/12 09:27:44;;;;;;;23.55;12.25;;;;;;;;;;4913853;29;20056;-60
2021/12/12 09:30:19;;;;;;;20.80;13.10;;;;;;;;;;4914035;29;20123;-58
2021/12/12 09:32:48;;;;;;;21.88;12.90;;;;;;;;;;4914849;29;20065;-60
2021/12/12 09:35:30;;;;;;;21.67;12.07;;;;;;;;;;4914884;29;20024;-58
2021/12/12 09:37:56;;;;;;;16.77;10.73;;;;;;;;;;4914739;29;20385;-59
2021/12/12 09:40:29;;;;;;;20.35;12.00;;;;;;;;;;4914612;29;20068;-64
2021/12/12 09:43:14;;;;;;;19.33;11.93;;;;;;;;;;4914321;29;20036;-63
2021/12/12 09:45:54;;;;;;;18.58;11.65;;;;;;;;;;4914399;29;20035;-60
2021/12/12 09:51:14;;;;;;;20.58;11.95;;;;;;;;;;4914996;29;20040;-67
2021/12/12 09:54:00;;;;;;;17.90;11.70;;;;;;;;;;4914545;29;20024;-62
2021/12/12 09:56:26;;;;;;;21.08;12.43;;;;;;;;;;4914621;29;20029;-62
2021/12/12 09:59:07;;;;;;;21.00;12.25;;;;;;;;;;4914359;29;20515;-67
2021/12/12 10:01:48;;;;;;;18.90;12.02;;;;;;;;;;4914470;29;20389;-61
2021/12/12 10:04:31;;;;;;;18.13;11.55;;;;;;;;;;4914643;29;20036;-61
2021/12/12 10:07:00;;;;;;;17.98;11.02;;;;;;;;;;4914553;29;20057;-60
2021/12/12 10:09:34;;;;;;;19.25;11.65;;;;;;;;;;4913695;29;20497;-61
2021/12/12 10:12:06;;;;;;;20.25;11.55;;;;;;;;;;4913996;29;20517;-61
2021/12/12 10:14:32;;;;;;;19.67;11.88;;;;;;;;;;4914324;29;20056;-62
2021/12/12 10:17:02;;;;;;;18.20;10.80;;;;;;;;;;4914607;29;20024;-61
2021/12/12 10:19:37;;;;;;;24.15;12.23;;;;;;;;;;4914426;29;20020;-61
2021/12/12 10:22:13;;;;;;;21.25;13.27;;;;;;;;;;4914388;29;20040;-62
2021/12/12 10:24:48;;;;;;;20.15;12.88;;;;;;;;;;4913994;29;20480;-62
2021/12/12 10:27:14;;;;;;;18.85;10.95;;;;;;;;;;4914004;29;20044;-63
2021/12/12 10:29:48;;;;;;;19.77;11.48;;;;;;;;;;4899475;29;20159;-60
2021/12/12 10:32:19;;;;;;;18.23;11.20;;;;;;;;;;4918019;29;20056;-60
2021/12/12 10:34:50;;;;;;;18.40;11.43;;;;;;;;;;4917640;29;20029;-60
2021/12/12 10:37:16;;;;;;;20.10;11.63;;;;;;;;;;4917640;29;20080;-62
2021/12/12 10:39:47;;;;;;;17.90;11.25;;;;;;;;;;4917598;29;20040;-63
2021/12/12 10:42:20;;;;;;;16.67;10.82;;;;;;;;;;4917790;29;20111;-62
2021/12/12 10:44:49;;;;;;;17.92;11.90;;;;;;;;;;4917736;29;20044;-62
2021/12/12 10:47:15;;;;;;;19.58;11.45;;;;;;;;;;4917509;29;20064;-71
2021/12/12 10:50:00;;;;;;;19.90;11.82;;;;;;;;;;4900611;29;20091;-62
2021/12/12 10:52:31;;;;;;;18.15;10.95;;;;;;;;;;4917555;29;20111;-63
2021/12/12 10:55:01;;;;;;;19.67;11.18;;;;;;;;;;4915421;29;20035;-60
2021/12/12 10:57:30;;;;;;;18.40;11.70;;;;;;;;;;4897693;29;20028;-61
2021/12/12 11:00:01;;;;;;;19.95;11.93;;;;;;;;;;4898783;29;20123;-62
2021/12/12 11:02:32;;;;;;;18.13;11.52;;;;;;;;;;4916048;29;20032;-61
2021/12/12 11:05:04;;;;;;;19.02;11.13;;;;;;;;;;4916537;29;20032;-63
2021/12/12 11:07:32;;;;;;;16.02;10.48;;;;;;;;;;4916270;29;20032;-62
2021/12/12 11:10:10;;;;;;;19.30;11.07;;;;;;;;;;4916148;29;20064;-62
2021/12/12 11:12:42;;;;;;;18.45;11.23;;;;;;;;;;4916499;29;20039;-62
2021/12/12 11:15:08;;;;;;;;;;;;;;;;;;4917273;29;20463;-62
2021/12/12 11:17:39;;;;;;;16.38;9.82;;;;;;;;;;4916296;29;19911;-62
2021/12/12 11:20:08;;;;;;;17.60;11.05;;;;;;;;;;4916513;29;20039;-61
2021/12/12 11:22:52;;;;;;;15.93;10.23;;;;;;;;;;4916589;29;20032;-62
2021/12/12 11:25:36;;;;;;;17.67;11.18;;;;;;;;;;4916134;29;20024;-61
2021/12/12 11:28:31;;;;;;;17.85;10.82;;;;;;;;;;4916127;29;20127;-61
2021/12/12 11:31:15;;;;;;;19.25;10.82;;;;;;;;;;4907519;29;20050;-62
2021/12/12 11:33:43;;;;;;;18.73;11.57;;;;;;;;;;4916258;29;20703;-62
2021/12/12 11:36:13;;;;;;;18.27;11.40;;;;;;;;;;4916197;29;20032;-63
2021/12/12 11:38:43;;;;;;;23.15;13.00;;;;;;;;;;4898985;29;20070;-61
2021/12/12 11:41:09;;;;;;;19.50;11.10;;;;;;;;;;4915019;29;20028;-62
2021/12/12 11:43:45;;;;;;;22.00;12.88;;;;;;;;;;4915675;29;20021;-62
2021/12/12 11:46:14;;;;;;;19.13;10.95;;;;;;;;;;4899097;29;20044;-62
2021/12/12 11:48:50;;;;;;;16.05;10.45;;;;;;;;;;4915992;29;20489;-62
2021/12/12 11:51:31;;;;;;;19.42;11.98;;;;;;;;;;4915916;29;20469;-62
2021/12/12 11:54:04;;;;;;;20.52;12.00;;;;;;;;;;4898751;29;20111;-63
2021/12/12 11:56:34;;;;;;;20.98;12.05;;;;;;;;;;4915766;29;20036;-61
2021/12/12 11:59:00;;;;;;;18.30;11.85;;;;;;;;;;4915610;29;20024;-62
2021/12/12 12:01:34;;;;;;;15.77;10.25;;;;;;;;;;4915716;29;20106;-63
2021/12/12 12:04:00;;;;;;;15.32;10.20;;;;;;;;;;4915651;29;20119;-62
2021/12/12 12:06:26;;;;;;;16.85;10.85;;;;;;;;;;4898489;29;20560;-61
2021/12/12 12:09:04;;;;;;;21.60;12.15;;;;;;;;;;4915140;29;20070;-61
2021/12/12 12:11:49;;;;;;;17.10;10.35;;;;;;;;;;4914843;29;20434;-62
2021/12/12 12:14:38;;;;;;;14.75;9.23;;;;;;;;;;4914944;29;20032;-61
2021/12/12 12:17:14;;;;;;;17.45;10.20;;;;;;;;;;4913331;29;20480;-62
2021/12/12 12:19:41;;;;;;;19.25;10.48;;;;;;;;;;4913019;29;20035;-61
2021/12/12 12:22:10;;;;;;;17.63;10.68;;;;;;;;;;4915552;29;20031;-61
2021/12/12 12:24:43;;;;;;;16.92;9.68;;;;;;;;;;4915312;29;20028;-64
2021/12/12 12:27:13;;;;;;;14.18;9.45;;;;;;;;;;4915192;29;20119;-61
2021/12/12 12:29:42;;;;;;;15.90;9.80;;;;;;;;;;4915402;29;20036;-69
2021/12/12 12:32:31;;;;;;;13.40;8.63;;;;;;;;;;4915508;29;20059;-62
2021/12/12 12:35:16;;;;;;;14.93;9.82;;;;;;;;;;4857217;29;20109;-63
2021/12/12 12:38:00;;;;;;;18.13;11.38;;;;;;;;;;4857202;29;20073;-68
2021/12/12 12:40:36;;;;;;;15.57;10.15;;;;;;;;;;4857198;29;20065;-64
2021/12/12 12:43:21;;;;;;;16.27;10.48;;;;;;;;;;4857052;29;20037;-64
2021/12/12 12:46:05;;;;;;;15.85;9.48;;;;;;;;;;4856614;29;20044;-63
2021/12/12 12:48:46;;;;;;;14.40;9.23;;;;;;;;;;4856904;29;20084;-68
2021/12/12 12:51:19;;;;;;;14.38;9.05;;;;;;;;;;4856546;29;20040;-63
2021/12/12 12:54:12;;;;;;;16.05;9.55;;;;;;;;;;4856891;29;20521;-70
2021/12/12 12:56:56;;;;;;;18.17;10.93;;;;;;;;;;4841514;29;20226;-68
2021/12/12 12:59:36;;;;;;;15.95;10.20;;;;;;;;;;4856662;29;20050;-66
2021/12/12 13:02:12;;;;;;;14.93;9.32;;;;;;;;;;4841383;29;20029;-61
2021/12/12 13:04:58;;;;;;;13.15;8.80;;;;;;;;;;4856962;29;20071;-60
2021/12/12 13:07:42;;;;;;;12.88;8.23;;;;;;;;;;4856454;29;20037;-65
2021/12/12 13:10:11;;;;;;;13.73;8.88;;;;;;;;;;4856401;29;20065;-65
2021/12/12 13:12:43;;;;;;;12.98;8.55;;;;;;;;;;4900779;29;20123;-61
2021/12/12 13:15:18;;;;;;;13.27;8.98;;;;;;;;;;4914830;29;20540;-61
2021/12/12 13:17:44;;;;;;;14.30;9.27;;;;;;;;;;4914800;29;20163;-61
2021/12/12 13:20:30;;;;;;;14.48;9.43;;;;;;;;;;4914687;29;20071;-63
2021/12/12 13:22:56;;;;;;;14.75;9.43;;;;;;;;;;4914940;29;20043;-60
2021/12/12 13:25:55;;;;;;;12.65;8.63;;;;;;;;;;4914817;29;20039;-62
2021/12/12 13:28:52;;;;;;;15.27;9.20;;;;;;;;;;4855166;29;20262;-64
2021/12/12 13:31:23;;;;;;;15.52;9.82;;;;;;;;;;4855599;29;20467;-67
2021/12/12 13:34:08;;;;;;;15.23;9.55;;;;;;;;;;4856401;29;20038;-61
2021/12/12 13:36:50;;;;;;;14.65;8.70;;;;;;;;;;4856557;29;20609;-60
2021/12/12 13:39:34;;;;;;;15.13;9.30;;;;;;;;;;4855972;29;20498;-60
2021/12/12 13:42:12;;;;;;;13.95;9.55;;;;;;;;;;4856634;29;20041;-62
2021/12/12 13:44:57;;;;;;;13.20;8.77;;;;;;;;;;4856057;29;20093;-62
2021/12/12 13:47:28;;;;;;;14.98;9.32;;;;;;;;;;4856610;29;20104;-60
2021/12/12 13:50:19;;;;;;;14.15;9.05;;;;;;;;;;4855990;29;20490;-60
2021/12/12 13:52:54;;;;;;;14.82;9.30;;;;;;;;;;4856033;29;20045;-59
2021/12/12 13:55:20;;;;;;;12.90;8.77;;;;;;;;;;4856056;29;20037;-60
2021/12/12 13:57:46;;;;;;;13.80;9.18;;;;;;;;;;4856240;29;20536;-61
2021/12/12 14:00:15;;;;;;;14.07;9.80;;;;;;;;;;4856031;29;20096;-59
2021/12/12 14:02:42;;;;;;;15.88;9.80;;;;;;;;;;4855985;29;20439;-61
2021/12/12 14:05:08;;;;;;;15.15;9.52;;;;;;;;;;4916390;29;20048;-63
2021/12/12 14:07:55;;;;;;;15.70;9.48;;;;;;;;;;4917142;29;20095;-63
2021/12/12 14:10:30;;;;;;;16.10;10.38;;;;;;;;;;4903904;29;20052;-65
2021/12/12 14:13:04;;;;;;;15.02;10.32;;;;;;;;;;4914784;29;20028;-62
2021/12/12 14:15:33;;;;;;;16.83;10.40;;;;;;;;;;4914067;29;20473;-61
2021/12/12 14:18:00;;;;;;;16.10;9.75;;;;;;;;;;4917160;29;20361;-66
2021/12/12 14:20:30;;;;;;;18.33;11.07;;;;;;;;;;4916786;29;20118;-63
2021/12/12 14:22:57;;;;;;;15.55;9.90;;;;;;;;;;4899250;29;20036;-62
2021/12/12 14:25:24;;;;;;;15.70;9.65;;;;;;;;;;4916567;29;20357;-65
2021/12/12 14:27:51;;;;;;;14.30;9.43;;;;;;;;;;4916606;29;20585;-61
2021/12/12 14:30:18;;;;;;;15.55;9.20;;;;;;;;;;4916579;29;20464;-60
2021/12/12 14:32:49;;;;;;;15.13;9.48;;;;;;;;;;4916574;29;20032;-61
2021/12/12 14:35:15;;;;;;;13.68;9.35;;;;;;;;;;4914380;29;20539;-68
2021/12/12 14:37:43;;;;;;;15.25;9.35;;;;;;;;;;4899231;29;20036;-61
2021/12/12 14:40:09;;;;;;;11.48;8.05;;;;;;;;;;4916800;29;20118;-67
2021/12/12 14:42:36;;;;;;;14.38;9.40;;;;;;;;;;4917642;29;20029;-66
2021/12/12 14:45:05;;;;;;;14.43;8.80;;;;;;;;;;4917321;29;20024;-65
2021/12/12 14:47:32;;;;;;;13.55;9.50;;;;;;;;;;4917300;29;20040;-64
2021/12/12 14:50:28;;;;;;;17.25;10.77;;;;;;;;;;4917553;29;20031;-71
2021/12/12 14:52:57;;;;;;;18.35;10.95;;;;;;;;;;4839069;29;20042;-59
2021/12/12 14:55:26;;;;;;;14.30;9.43;;;;;;;;;;4839210;29;20037;-67